Time;durP1;ratioP1;P1;durP2;ratioP2;P2;SDS_P1;SDS_P2;PMS_P1;PMS_P2;Temp;Humidity;BMP_temperature;BMP_pressure;BME280_temperature;BME280_humidity;BME280_pressure;Samples;Min_cycle;Max_cycle;Signal;HPM_P1;HPM_P2
2021/10/29 02:46:47;;;;;;;73.93;45.17;;;7.60;95.40;;;;;;5098928;24;20055;-78
2021/10/29 02:49:13;;;;;;;69.35;43.72;;;7.70;95.50;;;;;;4780901;29;20047;-78
2021/10/29 02:51:38;;;;;;;69.55;44.30;;;7.70;95.30;;;;;;4779953;29;20035;-78
2021/10/29 02:54:04;;;;;;;70.75;43.10;;;7.70;95.40;;;;;;4780171;29;20224;-78
2021/10/29 02:56:30;;;;;;;71.95;42.78;;;7.70;95.50;;;;;;4765021;30;20039;-78
2021/10/29 02:58:55;;;;;;;68.82;45.10;;;7.70;95.40;;;;;;4779472;29;20055;-78
2021/10/29 03:05:15;;;;;;;76.40;44.55;;;7.60;95.30;;;;;;4780955;30;20058;-78
2021/10/29 03:07:42;;;;;;;66.60;43.00;;;7.60;95.40;;;;;;4779746;30;20039;-79
2021/10/29 03:10:09;;;;;;;73.20;42.47;;;7.60;95.60;;;;;;4780692;29;20031;-78
2021/10/29 03:12:36;;;;;;;66.72;42.40;;;7.60;95.60;;;;;;4779277;30;20031;-78
2021/10/29 03:15:03;;;;;;;76.78;41.95;;;7.60;95.50;;;;;;4764675;30;20040;-78
2021/10/29 03:17:29;;;;;;;81.30;44.47;;;7.60;95.40;;;;;;4790478;29;20055;-79
2021/10/29 03:19:54;;;;;;;68.85;42.88;;;7.60;95.40;;;;;;4779368;29;20039;-79
2021/10/29 03:22:20;;;;;;;73.55;42.75;;;7.60;95.40;;;;;;4776049;29;20143;-78
2021/10/29 03:24:46;;;;;;;73.53;43.10;;;7.60;95.40;;;;;;4776754;30;20043;-78
2021/10/29 03:27:11;;;;;;;74.07;44.60;;;7.60;95.40;;;;;;4779240;29;20042;-78
2021/10/29 03:29:39;;;;;;;71.28;43.78;;;7.60;95.30;;;;;;4778999;29;20107;-78
2021/10/29 03:32:05;;;;;;;64.32;40.45;;;7.60;95.20;;;;;;4779118;29;20044;-78
2021/10/29 03:34:31;;;;;;;66.77;41.70;;;7.50;95.50;;;;;;4779099;30;20058;-78
2021/10/29 03:36:57;;;;;;;66.82;42.35;;;7.60;95.50;;;;;;4778863;29;20110;-79
2021/10/29 03:39:31;;;;;;;67.30;41.25;;;7.60;95.50;;;;;;4778718;29;20043;-78
2021/10/29 03:42:02;;;;;;;71.18;43.83;;;7.60;95.50;;;;;;4778785;29;20043;-78
2021/10/29 03:44:45;;;;;;;72.78;44.55;;;7.60;95.60;;;;;;4775887;29;20039;-78
2021/10/29 03:47:12;;;;;;;65.28;42.35;;;7.50;95.50;;;;;;4762088;30;20082;-78
2021/10/29 03:49:49;;;;;;;67.28;42.10;;;7.60;95.70;;;;;;4761251;30;20036;-78
2021/10/29 03:52:27;;;;;;;66.20;39.92;;;7.60;95.50;;;;;;4775928;29;20067;-78
2021/10/29 03:54:56;;;;;;;76.38;41.58;;;7.60;95.70;;;;;;4761276;30;20116;-78
2021/10/29 03:57:26;;;;;;;66.40;40.55;;;7.70;95.60;;;;;;4761483;30;20151;-78
2021/10/29 03:59:54;;;;;;;66.45;41.35;;;7.70;95.50;;;;;;4760960;30;20079;-78
2021/10/29 04:02:23;;;;;;;67.88;39.97;;;7.70;95.40;;;;;;4761174;30;20332;-79
2021/10/29 04:04:49;;;;;;;74.75;43.90;;;7.80;95.30;;;;;;4760793;30;20107;-78
2021/10/29 04:07:15;;;;;;;72.95;42.95;;;7.80;95.30;;;;;;4760872;30;20332;-77
2021/10/29 04:09:44;;;;;;;69.65;41.90;;;7.80;95.20;;;;;;4760825;30;20235;-78
2021/10/29 04:12:12;;;;;;;68.93;40.83;;;7.80;95.20;;;;;;4760928;30;20173;-78
2021/10/29 04:14:39;;;;;;;75.18;43.72;;;7.80;95.30;;;;;;4760949;30;20032;-78
2021/10/29 04:17:04;;;;;;;65.37;41.57;;;7.80;95.20;;;;;;4760648;30;20040;-78
2021/10/29 04:19:30;;;;;;;78.57;43.42;;;7.80;95.30;;;;;;4760739;30;20043;-78
2021/10/29 04:21:59;;;;;;;67.82;42.75;;;7.80;95.30;;;;;;4760735;30;20044;-78
2021/10/29 04:24:26;;;;;;;70.55;42.92;;;7.80;95.40;;;;;;4760582;30;20048;-78
2021/10/29 04:26:53;;;;;;;70.30;44.38;;;7.80;95.40;;;;;;4761655;30;20036;-78
2021/10/29 04:29:24;;;;;;;72.18;42.55;;;7.80;95.50;;;;;;4760704;30;20098;-78
2021/10/29 04:31:51;;;;;;;71.03;40.60;;;7.80;95.50;;;;;;4761424;30;20039;-78
2021/10/29 04:34:25;;;;;;;68.82;44.05;;;7.90;95.60;;;;;;4760519;30;20036;-78
2021/10/29 04:36:53;;;;;;;74.10;42.90;;;7.90;95.40;;;;;;4760485;30;20201;-78
2021/10/29 04:39:19;;;;;;;75.30;44.30;;;7.90;95.30;;;;;;4760694;30;20067;-78
2021/10/29 04:41:49;;;;;;;71.30;44.17;;;7.90;95.30;;;;;;4760632;30;20440;-78
2021/10/29 04:44:17;;;;;;;72.47;42.92;;;7.80;95.30;;;;;;4761100;30;20340;-78
2021/10/29 04:46:47;;;;;;;84.78;44.47;;;7.70;95.50;;;;;;4750235;30;20052;-77
2021/10/29 04:49:13;;;;;;;71.50;43.45;;;7.80;95.50;;;;;;4750010;30;20419;-78
2021/10/29 04:51:39;;;;;;;63.15;41.22;;;7.80;95.50;;;;;;4760514;30;20097;-77
2021/10/29 04:54:05;;;;;;;80.30;43.92;;;7.80;95.60;;;;;;4765419;29;20091;-77
2021/10/29 04:56:30;;;;;;;78.75;43.88;;;7.80;95.60;;;;;;4756954;30;20039;-77
2021/10/29 04:58:56;;;;;;;73.93;43.42;;;7.70;95.60;;;;;;4761430;30;20044;-78
2021/10/29 05:01:22;;;;;;;73.63;45.25;;;7.70;95.70;;;;;;4763769;30;20110;-77
2021/10/29 05:03:48;;;;;;;84.70;44.10;;;7.70;95.60;;;;;;4778541;29;20037;-77
2021/10/29 05:06:13;;;;;;;69.80;42.40;;;7.70;95.60;;;;;;4768343;29;20028;-77
2021/10/29 05:08:39;;;;;;;72.25;42.90;;;7.70;95.70;;;;;;4778450;29;20103;-78
2021/10/29 05:11:06;;;;;;;73.30;43.17;;;7.80;95.60;;;;;;4766448;29;20036;-78
2021/10/29 05:13:32;;;;;;;73.40;44.83;;;7.80;95.60;;;;;;4763842;30;20032;-78
2021/10/29 05:15:57;;;;;;;69.70;42.05;;;7.80;95.40;;;;;;4763391;30;20057;-77
2021/10/29 05:18:23;;;;;;;73.30;43.92;;;7.80;95.50;;;;;;4762984;30;20225;-78
2021/10/29 05:20:50;;;;;;;79.57;43.13;;;7.80;95.50;;;;;;4763541;30;20040;-77
2021/10/29 05:23:16;;;;;;;70.82;44.35;;;7.70;95.40;;;;;;4763582;30;20316;-79
2021/10/29 05:25:42;;;;;;;74.20;44.90;;;7.80;95.50;;;;;;4763450;30;20028;-79
2021/10/29 05:28:09;;;;;;;77.22;47.60;;;7.70;95.50;;;;;;4763223;30;20058;-79
2021/10/29 05:30:35;;;;;;;77.45;44.35;;;7.70;95.60;;;;;;4763479;30;20043;-79
2021/10/29 05:33:02;;;;;;;71.57;45.50;;;7.80;95.70;;;;;;4764144;30;20032;-79
2021/10/29 05:35:28;;;;;;;77.18;45.63;;;7.80;95.70;;;;;;4763478;30;20123;-79
2021/10/29 05:37:55;;;;;;;78.05;46.70;;;7.80;95.70;;;;;;4763449;30;20032;-79
2021/10/29 05:40:20;;;;;;;74.25;45.53;;;7.70;95.70;;;;;;4763577;30;20035;-77
2021/10/29 05:42:47;;;;;;;82.88;48.10;;;7.70;95.90;;;;;;4763489;30;20041;-77
2021/10/29 05:45:13;;;;;;;73.75;46.28;;;7.70;95.90;;;;;;4763035;30;20059;-78
2021/10/29 05:47:39;;;;;;;79.78;47.03;;;7.80;95.90;;;;;;4759502;30;20098;-77
2021/10/29 05:50:09;;;;;;;78.65;46.85;;;7.80;95.80;;;;;;4759711;30;20041;-77
2021/10/29 05:52:39;;;;;;;75.68;46.72;;;7.80;95.90;;;;;;4748209;30;20051;-77
2021/10/29 05:55:15;;;;;;;78.22;47.08;;;7.80;95.90;;;;;;4744869;30;20051;-79
2021/10/29 05:57:44;;;;;;;72.90;46.40;;;7.80;96.00;;;;;;4759616;30;20040;-77
2021/10/29 06:00:11;;;;;;;78.40;47.60;;;7.80;95.90;;;;;;4744874;30;20042;-77
2021/10/29 06:02:40;;;;;;;77.35;50.42;;;7.80;95.90;;;;;;4759318;30;20072;-78
2021/10/29 06:05:07;;;;;;;92.47;51.45;;;7.90;95.90;;;;;;4744675;30;20050;-78
2021/10/29 06:07:34;;;;;;;81.10;50.97;;;7.80;96.00;;;;;;4759321;30;20033;-78
2021/10/29 06:10:01;;;;;;;102.18;52.33;;;7.80;96.20;;;;;;4758350;30;20041;-78
2021/10/29 06:12:27;;;;;;;88.45;49.83;;;7.90;96.30;;;;;;4759350;30;20074;-78
2021/10/29 06:14:52;;;;;;;87.75;50.53;;;7.90;96.20;;;;;;4759336;30;20037;-78
2021/10/29 06:17:18;;;;;;;78.13;49.63;;;7.90;96.20;;;;;;4764843;30;20119;-78
2021/10/29 06:19:45;;;;;;;79.20;48.35;;;8.00;96.30;;;;;;4759908;30;20258;-78
2021/10/29 06:22:19;;;;;;;78.20;49.63;;;8.00;96.10;;;;;;4759714;30;20052;-78
2021/10/29 06:24:46;;;;;;;80.15;50.17;;;8.00;96.10;;;;;;4759720;30;20227;-78
2021/10/29 06:29:58;;;;;;;84.60;49.78;;;8.10;96.00;;;;;;4797810;29;20130;-78
2021/10/29 06:32:23;;;;;;;82.10;50.10;;;8.20;95.80;;;;;;4797507;29;20052;-78
2021/10/29 06:34:50;;;;;;;80.18;46.78;;;8.30;95.80;;;;;;4797136;29;20043;-78
2021/10/29 06:37:16;;;;;;;76.57;47.65;;;8.40;95.70;;;;;;4781885;30;20043;-78
2021/10/29 06:39:48;;;;;;;74.55;45.92;;;8.50;95.40;;;;;;4782342;30;20081;-78
2021/10/29 06:42:25;;;;;;;80.20;47.17;;;8.50;95.20;;;;;;4782078;30;20325;-78
2021/10/29 07:01:28;;;;;;;77.47;46.35;;;8.80;94.70;;;;;;4743536;30;20051;-78
2021/10/29 07:04:19;;;;;;;91.68;47.67;;;8.90;94.50;;;;;;4743497;30;20047;-79
2021/10/29 07:42:08;;;;;;;61.30;39.78;;;10.00;92.60;;;;;;4745767;30;20057;-78
2021/10/29 07:44:41;;;;;;;62.65;40.08;;;10.00;92.40;;;;;;4744196;30;20253;-78
2021/10/29 07:47:07;;;;;;;64.25;41.05;;;10.20;92.10;;;;;;4759507;30;20102;-78
2021/10/29 07:49:32;;;;;;;65.30;40.50;;;10.20;91.90;;;;;;4758217;30;20233;-78
2021/10/29 07:51:58;;;;;;;70.50;41.75;;;10.20;91.80;;;;;;4749387;30;20040;-78
2021/10/29 07:54:25;;;;;;;62.83;38.97;;;10.30;91.70;;;;;;4743534;30;20055;-79
2021/10/29 07:56:51;;;;;;;73.72;41.30;;;10.50;91.30;;;;;;4758663;30;20033;-79
2021/10/29 07:59:20;;;;;;;62.85;40.13;;;10.50;91.30;;;;;;4758241;30;20221;-79
2021/10/29 08:01:47;;;;;;;64.95;38.60;;;10.60;91.00;;;;;;4757437;30;20038;-78
2021/10/29 08:04:13;;;;;;;72.53;38.97;;;10.70;91.10;;;;;;4757757;30;20047;-78
2021/10/29 08:06:39;;;;;;;58.25;37.20;;;10.80;90.80;;;;;;4758155;30;20036;-79
2021/10/29 08:09:05;;;;;;;63.93;38.57;;;10.90;90.40;;;;;;4743503;30;20081;-79
2021/10/29 08:11:31;;;;;;;62.10;36.50;;;11.10;89.90;;;;;;4758245;30;20110;-79
2021/10/29 08:13:57;;;;;;;60.88;36.83;;;11.20;89.40;;;;;;4737646;30;20340;-78
2021/10/29 08:16:24;;;;;;;55.38;35.22;;;11.30;90.00;;;;;;4741817;30;20082;-78
2021/10/29 08:18:50;;;;;;;60.25;37.33;;;11.40;89.00;;;;;;4757972;30;20052;-78
2021/10/29 08:21:15;;;;;;;61.55;38.50;;;11.50;88.50;;;;;;4757719;30;20048;-77
2021/10/29 08:23:42;;;;;;;63.40;37.42;;;11.70;88.00;;;;;;4743420;30;20321;-78
2021/10/29 08:26:11;;;;;;;58.50;37.40;;;11.70;87.80;;;;;;4759464;30;20074;-78
2021/10/29 08:28:41;;;;;;;72.95;36.90;;;11.80;86.80;;;;;;4743441;30;20047;-78
2021/10/29 08:31:07;;;;;;;53.25;35.17;;;12.00;85.90;;;;;;4758019;30;20434;-79
2021/10/29 08:33:33;;;;;;;55.00;33.30;;;12.20;85.50;;;;;;4757169;30;20225;-79
2021/10/29 08:36:02;;;;;;;54.90;34.13;;;12.30;84.50;;;;;;4757961;30;20120;-79
2021/10/29 08:38:29;;;;;;;54.83;31.55;;;12.40;84.00;;;;;;4757745;30;20045;-78
2021/10/29 08:40:55;;;;;;;51.97;32.45;;;12.50;82.60;;;;;;4758179;30;20094;-78
2021/10/29 08:43:22;;;;;;;46.70;30.17;;;12.60;81.90;;;;;;4743107;30;20032;-78
2021/10/29 08:45:48;;;;;;;48.25;30.20;;;12.80;80.80;;;;;;4757541;30;20287;-78
2021/10/29 08:48:14;;;;;;;50.53;30.77;;;12.90;80.10;;;;;;4757623;30;20078;-78
2021/10/29 08:50:40;;;;;;;51.22;30.77;;;13.00;79.40;;;;;;4760212;30;20311;-78
2021/10/29 08:53:06;;;;;;;50.72;29.15;;;13.00;78.20;;;;;;4729476;30;20496;-78
2021/10/29 08:55:34;;;;;;;46.50;29.37;;;13.20;78.00;;;;;;4757766;30;20041;-78
2021/10/29 08:58:03;;;;;;;46.13;30.05;;;13.20;76.90;;;;;;4757805;30;20059;-78
2021/10/29 09:00:34;;;;;;;46.97;30.15;;;13.30;76.60;;;;;;4743000;30;20032;-78
2021/10/29 09:03:09;;;;;;;50.80;30.52;;;13.30;76.20;;;;;;4743063;30;20033;-78
2021/10/29 09:05:47;;;;;;;52.55;29.48;;;13.40;76.80;;;;;;4757550;30;20039;-78
2021/10/29 09:32:59;;;;;;;44.25;28.00;;;14.20;71.30;;;;;;4753908;30;20383;-79
2021/10/29 09:35:36;;;;;;;46.95;28.63;;;14.20;71.50;;;;;;4756669;30;20032;-79
2021/10/29 09:38:14;;;;;;;54.42;26.65;;;14.20;70.60;;;;;;4741983;30;20037;-80
2021/10/29 09:41:02;;;;;;;47.45;27.25;;;14.20;70.40;;;;;;4755735;30;20108;-79
2021/10/29 09:43:33;;;;;;;49.13;26.70;;;14.30;70.10;;;;;;4742781;30;20232;-79
2021/10/29 09:46:07;;;;;;;46.47;27.43;;;14.20;71.00;;;;;;4761057;30;20249;-79
2021/10/29 09:48:45;;;;;;;40.45;26.23;;;14.30;70.30;;;;;;4745123;30;20040;-79
2021/10/29 09:51:14;;;;;;;;;;;14.50;70.00;;;;;;4761504;30;20032;-79
2021/10/29 09:58:53;;;;;;;50.60;27.02;;;14.80;69.00;;;;;;4754394;30;20347;-79
2021/10/29 10:01:23;;;;;;;50.72;27.58;;;14.90;68.00;;;;;;4759478;30;20036;-79
2021/10/29 10:03:50;;;;;;;49.03;26.25;;;15.00;68.60;;;;;;4759602;30;20063;-78
2021/10/29 10:06:25;;;;;;;52.28;27.70;;;15.10;67.50;;;;;;4759356;30;20042;-78
2021/10/29 10:08:56;;;;;;;44.25;26.55;;;15.20;67.50;;;;;;4759415;30;20112;-78
2021/10/29 10:11:26;;;;;;;51.50;29.50;;;15.30;66.50;;;;;;4759440;30;20057;-79
2021/10/29 10:13:56;;;;;;;48.22;27.77;;;15.40;67.10;;;;;;4759320;30;20041;-78
2021/10/29 10:16:28;;;;;;;48.90;28.25;;;15.50;66.30;;;;;;4762574;30;20051;-79
2021/10/29 10:18:56;;;;;;;47.85;26.85;;;15.60;65.90;;;;;;4759145;30;20040;-80
2021/10/29 10:21:25;;;;;;;45.00;26.30;;;15.70;65.40;;;;;;4759231;30;20060;-79
2021/10/29 10:23:54;;;;;;;50.20;27.75;;;15.70;65.10;;;;;;4759183;30;20225;-79
2021/10/29 10:45:52;;;;;;;40.88;27.58;;;16.10;63.50;;;;;;4758800;30;20604;-79
2021/10/29 10:48:30;;;;;;;47.95;25.90;;;16.30;62.60;;;;;;4760871;30;20047;-79
2021/10/29 11:05:17;;;;;;;45.00;26.50;;;16.20;62.80;;;;;;4760163;30;20292;-80
2021/10/29 11:10:19;;;;;;;47.72;26.45;;;16.30;63.10;;;;;;4761299;30;20102;-79
2021/10/29 11:12:46;;;;;;;42.00;26.05;;;16.30;63.10;;;;;;4765010;30;20178;-80
2021/10/29 11:15:39;;;;;;;41.72;26.23;;;16.40;61.60;;;;;;4763928;30;20028;-80
2021/10/29 11:18:17;;;;;;;43.92;27.52;;;16.40;62.10;;;;;;4802607;29;20061;-80
2021/10/29 11:20:47;;;;;;;52.15;27.15;;;16.40;61.50;;;;;;4800867;29;20049;-80
2021/10/29 11:23:18;;;;;;;42.65;25.88;;;16.50;60.90;;;;;;4790603;29;20031;-80
2021/10/29 11:26:03;;;;;;;49.25;27.70;;;16.40;60.90;;;;;;4796379;29;20050;-80
2021/10/29 11:28:39;;;;;;;38.92;25.27;;;16.40;61.10;;;;;;4777680;30;20092;-80
2021/10/29 11:31:08;;;;;;;50.67;26.30;;;16.30;61.60;;;;;;4748173;30;20046;-80
2021/10/29 11:33:39;;;;;;;61.42;27.23;;;16.40;61.30;;;;;;4780665;29;20069;-79
2021/10/29 11:36:08;;;;;;;45.17;25.77;;;16.50;61.70;;;;;;4790121;30;20095;-79
2021/10/29 11:38:36;;;;;;;43.78;25.90;;;16.50;60.80;;;;;;4790217;30;20157;-79
2021/10/29 11:41:05;;;;;;;39.45;26.95;;;16.50;61.20;;;;;;4795683;29;20404;-77
2021/10/29 11:43:32;;;;;;;42.58;24.52;;;16.60;60.90;;;;;;4792787;29;20067;-77
2021/10/29 11:46:00;;;;;;;42.53;26.10;;;16.70;60.60;;;;;;4795161;29;20059;-78
2021/10/29 11:48:27;;;;;;;45.65;25.95;;;16.70;60.90;;;;;;4796409;29;20124;-78
2021/10/29 11:51:09;;;;;;;43.33;26.45;;;16.70;60.70;;;;;;4799045;29;20058;-77
2021/10/29 11:53:42;;;;;;;53.70;26.17;;;16.80;60.60;;;;;;4794226;30;20039;-79
2021/10/29 11:56:23;;;;;;;41.22;23.95;;;16.70;60.00;;;;;;4757167;30;20052;-80
2021/10/29 12:07:23;;;;;;;44.58;24.60;;;16.80;59.70;;;;;;4776084;30;20370;-80
2021/10/29 12:10:00;;;;;;;33.90;23.40;;;16.70;60.20;;;;;;4748412;30;20039;-80
2021/10/29 12:12:29;;;;;;;40.63;23.98;;;16.70;59.80;;;;;;4762523;30;20081;-78
2021/10/29 12:15:00;;;;;;;42.25;24.05;;;16.70;60.00;;;;;;4762692;30;20265;-80
2021/10/29 12:17:32;;;;;;;39.97;23.23;;;16.80;59.90;;;;;;4754001;30;20046;-80
2021/10/29 12:20:09;;;;;;;39.20;24.08;;;16.90;59.50;;;;;;4777499;30;20071;-80
2021/10/29 12:22:40;;;;;;;43.10;24.52;;;16.90;59.40;;;;;;4760025;30;20221;-80
2021/10/29 12:28:13;;;;;;;39.80;23.73;;;16.70;60.10;;;;;;4761884;30;20270;-80
2021/10/29 12:31:10;;;;;;;36.85;24.27;;;16.80;59.40;;;;;;4762556;30;20320;-81
2021/10/29 12:33:57;;;;;;;38.85;23.95;;;16.70;59.20;;;;;;4776317;30;20124;-81
2021/10/29 13:04:05;;;;;;;34.30;20.35;;;16.50;58.40;;;;;;4741518;30;20051;-79
2021/10/29 13:06:35;;;;;;;33.55;20.65;;;16.30;58.60;;;;;;4742152;30;20037;-80
2021/10/29 13:09:11;;;;;;;33.47;19.25;;;16.20;59.20;;;;;;4741762;30;20047;-80
2021/10/29 13:11:53;;;;;;;37.50;21.20;;;16.20;59.30;;;;;;4742504;30;20115;-81
2021/10/29 13:14:31;;;;;;;35.55;19.38;;;16.30;59.10;;;;;;4743352;30;20055;-80
2021/10/29 13:16:58;;;;;;;36.85;19.88;;;16.30;58.70;;;;;;4745935;30;20036;-80
2021/10/29 13:25:51;;;;;;;32.00;19.95;;;16.30;58.80;;;;;;4746473;30;20088;-79
2021/10/29 13:35:42;;;;;;;34.90;19.98;;;16.10;59.20;;;;;;4741090;30;20244;-80
2021/10/29 13:52:01;;;;;;;36.05;22.73;;;15.80;59.80;;;;;;4761003;30;20036;-81
2021/10/29 14:29:48;;;;;;;43.97;23.05;;;15.40;62.20;;;;;;4773673;30;20239;-80
2021/10/29 14:32:29;;;;;;;35.25;22.50;;;15.40;62.40;;;;;;4778497;30;20040;-81
2021/10/29 14:34:58;;;;;;;33.92;20.77;;;15.30;62.50;;;;;;4776891;30;20055;-81
2021/10/29 14:40:16;;;;;;;36.42;23.00;;;15.10;63.20;;;;;;4778846;30;20047;-80
2021/10/29 14:42:57;;;;;;;42.13;23.15;;;15.00;63.50;;;;;;4778159;30;20504;-81
2021/10/29 14:45:27;;;;;;;39.08;23.63;;;15.00;63.70;;;;;;4776937;30;20050;-81
2021/10/29 14:53:23;;;;;;;42.63;24.52;;;14.90;64.50;;;;;;4780752;30;20072;-80
2021/10/29 15:30:44;;;;;;;30.75;18.63;;;14.20;65.90;;;;;;4763171;30;20040;-80
2021/10/29 15:41:53;;;;;;;31.05;18.77;;;14.00;66.20;;;;;;4765307;30;20362;-81
2021/10/29 15:44:33;;;;;;;32.15;18.95;;;13.90;66.40;;;;;;4777450;30;20156;-81
2021/10/29 15:47:02;;;;;;;29.77;17.30;;;13.90;66.80;;;;;;4776010;30;20064;-81
2021/10/29 15:49:47;;;;;;;34.83;19.70;;;13.80;66.90;;;;;;4782367;30;20119;-80
2021/10/29 15:52:14;;;;;;;35.58;19.40;;;13.80;67.20;;;;;;4795403;30;20076;-80
2021/10/29 15:54:51;;;;;;;30.02;18.95;;;13.70;67.50;;;;;;4810581;29;20047;-80
2021/10/29 15:57:24;;;;;;;25.92;18.27;;;13.70;67.90;;;;;;4794508;29;20044;-80
2021/10/29 16:00:04;;;;;;;35.22;19.85;;;13.60;68.10;;;;;;4795452;29;20120;-80
2021/10/29 16:18:41;;;;;;;46.35;24.90;;;13.30;71.00;;;;;;4782284;30;20231;-80
2021/10/29 16:21:07;;;;;;;42.75;25.90;;;13.30;71.10;;;;;;4766373;30;20064;-80
2021/10/29 16:23:33;;;;;;;47.30;24.27;;;13.30;71.30;;;;;;4760318;30;20036;-80
2021/10/29 16:26:08;;;;;;;51.90;27.53;;;13.30;71.50;;;;;;4760685;30;20074;-81
2021/10/29 16:28:37;;;;;;;46.45;26.30;;;13.30;71.80;;;;;;4763715;30;20052;-79
2021/10/29 16:31:02;;;;;;;42.83;25.73;;;13.20;72.20;;;;;;4760315;30;20044;-81
2021/10/29 16:33:32;;;;;;;43.05;27.10;;;13.20;73.00;;;;;;4760412;30;20150;-80
2021/10/29 16:35:59;;;;;;;46.38;26.00;;;13.20;72.50;;;;;;4760320;30;20040;-80
2021/10/29 16:38:25;;;;;;;44.22;26.95;;;13.20;72.50;;;;;;4760162;30;20059;-80
2021/10/29 16:40:51;;;;;;;43.00;27.05;;;13.20;72.60;;;;;;4760138;30;20040;-80
2021/10/29 16:43:18;;;;;;;43.73;25.83;;;13.20;72.80;;;;;;4760297;30;20063;-79
2021/10/29 16:45:47;;;;;;;41.63;26.65;;;13.10;72.80;;;;;;4760006;30;20137;-80
2021/10/29 16:48:22;;;;;;;49.28;27.75;;;13.10;73.00;;;;;;4761363;30;20094;-79
2021/10/29 16:50:49;;;;;;;48.58;28.55;;;13.10;73.30;;;;;;4763424;30;20374;-80
2021/10/29 16:53:15;;;;;;;55.40;28.37;;;13.00;73.30;;;;;;4757126;29;20238;-80
2021/10/29 16:55:42;;;;;;;41.55;26.95;;;13.00;73.50;;;;;;4763923;30;20070;-80
2021/10/29 16:58:12;;;;;;;42.42;26.20;;;13.00;73.50;;;;;;4763760;30;20040;-80
2021/10/29 17:00:38;;;;;;;50.30;28.58;;;13.00;73.50;;;;;;4763688;30;20141;-81
2021/10/29 17:03:04;;;;;;;45.95;27.77;;;13.00;73.40;;;;;;4763478;30;20063;-80
2021/10/29 17:05:30;;;;;;;49.78;27.45;;;13.00;73.40;;;;;;4763555;30;20047;-81
2021/10/29 17:07:56;;;;;;;42.22;26.98;;;12.90;73.70;;;;;;4763576;30;20228;-79
2021/10/29 17:10:22;;;;;;;44.75;26.42;;;12.90;73.80;;;;;;4766670;30;20032;-80
2021/10/29 17:12:49;;;;;;;47.45;27.15;;;12.90;73.90;;;;;;4767487;30;20340;-80
2021/10/29 17:15:17;;;;;;;42.55;26.90;;;12.90;73.90;;;;;;4763123;30;20044;-80
2021/10/29 17:17:43;;;;;;;48.10;26.73;;;12.90;73.90;;;;;;4752174;30;20040;-81
2021/10/29 17:20:12;;;;;;;45.45;26.15;;;12.80;74.30;;;;;;4766097;30;20361;-80
2021/10/29 17:22:42;;;;;;;44.90;26.38;;;12.80;74.30;;;;;;4762716;30;20052;-80
2021/10/29 17:25:09;;;;;;;44.33;27.52;;;12.90;74.40;;;;;;4765413;30;20085;-81
2021/10/29 17:27:35;;;;;;;43.28;26.50;;;12.90;74.40;;;;;;4765003;30;20389;-81
2021/10/29 17:30:01;;;;;;;48.53;27.70;;;12.90;74.30;;;;;;4764762;30;20031;-79
2021/10/29 17:32:27;;;;;;;45.97;26.73;;;12.90;74.50;;;;;;4770121;29;20089;-79
2021/10/29 17:34:53;;;;;;;48.45;27.90;;;12.90;74.50;;;;;;4748574;30;20256;-80
2021/10/29 17:37:19;;;;;;;42.05;26.23;;;12.90;74.50;;;;;;4762808;30;20036;-81
2021/10/29 17:39:45;;;;;;;39.72;26.27;;;12.90;74.70;;;;;;4762737;30;20071;-80
2021/10/29 17:42:12;;;;;;;48.35;26.08;;;12.90;74.80;;;;;;4762897;30;20040;-80
2021/10/29 17:44:39;;;;;;;42.90;25.92;;;12.90;74.80;;;;;;4763008;30;20261;-80
2021/10/29 17:47:05;;;;;;;;;;;12.90;74.80;;;;;;4767099;30;20071;-80
2021/10/29 17:49:32;;;;;;;56.43;28.47;;;12.90;74.90;;;;;;4763995;30;19910;-80
2021/10/29 17:52:03;;;;;;;44.80;26.88;;;12.80;75.10;;;;;;4766886;30;20039;-80
2021/10/29 17:54:35;;;;;;;41.63;27.67;;;12.70;75.40;;;;;;4763557;30;20048;-79
2021/10/29 17:57:02;;;;;;;44.53;26.10;;;12.70;75.70;;;;;;4762726;30;20339;-81
2021/10/29 17:59:28;;;;;;;46.20;25.58;;;12.60;75.90;;;;;;4761838;30;20075;-79
2021/10/29 18:01:54;;;;;;;44.65;27.58;;;12.70;75.80;;;;;;4753029;30;20051;-81
2021/10/29 18:04:19;;;;;;;52.40;28.00;;;12.70;75.50;;;;;;4748384;30;20055;-80
2021/10/29 18:06:45;;;;;;;52.80;27.23;;;12.70;75.50;;;;;;4744980;30;20070;-80
2021/10/29 18:09:11;;;;;;;45.10;28.17;;;12.70;75.40;;;;;;4754167;30;20347;-81
2021/10/29 18:11:37;;;;;;;40.83;27.25;;;12.70;75.60;;;;;;4749589;30;20097;-81
2021/10/29 18:14:06;;;;;;;46.63;27.63;;;12.60;75.80;;;;;;4757186;30;20401;-82
2021/10/29 18:16:35;;;;;;;53.92;27.83;;;12.60;75.80;;;;;;4764919;30;20111;-82
2021/10/29 18:19:02;;;;;;;41.83;28.63;;;12.50;76.00;;;;;;4758326;29;20040;-80
2021/10/29 18:21:30;;;;;;;50.42;28.63;;;12.40;76.30;;;;;;4759038;30;20228;-82
2021/10/29 18:23:56;;;;;;;47.22;27.60;;;12.40;76.80;;;;;;4753272;30;20032;-81
2021/10/29 18:26:24;;;;;;;40.20;26.50;;;12.30;77.10;;;;;;4753325;30;20044;-81
2021/10/29 18:28:52;;;;;;;46.50;28.30;;;12.30;77.50;;;;;;4751434;30;20041;-81
2021/10/29 18:31:18;;;;;;;48.30;28.83;;;12.20;77.70;;;;;;4759154;30;20579;-81
2021/10/29 18:33:44;;;;;;;51.17;28.02;;;12.30;77.70;;;;;;4759051;30;20061;-82
2021/10/29 18:36:11;;;;;;;46.22;28.77;;;12.40;77.60;;;;;;4752918;30;20048;-81
2021/10/29 18:38:37;;;;;;;47.30;28.92;;;12.40;77.50;;;;;;4755044;30;20111;-81
2021/10/29 18:41:03;;;;;;;50.08;29.52;;;12.30;77.70;;;;;;4773534;30;20059;-81
2021/10/29 18:43:29;;;;;;;50.07;27.47;;;12.30;77.80;;;;;;4749782;30;20227;-81
2021/10/29 18:45:56;;;;;;;43.58;27.95;;;12.30;77.90;;;;;;4774259;30;20064;-81
2021/10/29 18:48:22;;;;;;;40.80;27.02;;;12.20;78.00;;;;;;4761434;30;20068;-81
2021/10/29 18:50:48;;;;;;;50.35;29.45;;;12.20;78.40;;;;;;4755998;30;20069;-80
2021/10/29 18:53:13;;;;;;;47.55;27.90;;;12.20;78.60;;;;;;4762379;30;20060;-81
2021/10/29 18:55:39;;;;;;;44.80;27.95;;;12.20;78.60;;;;;;4762571;30;20024;-81
2021/10/29 18:58:05;;;;;;;48.63;28.45;;;12.10;78.80;;;;;;4762185;30;20125;-81
2021/10/29 19:00:31;;;;;;;41.78;27.48;;;12.10;79.00;;;;;;4757103;30;20062;-81
2021/10/29 19:02:57;;;;;;;40.17;27.40;;;12.00;79.30;;;;;;4759311;30;20036;-79
2021/10/29 19:05:23;;;;;;;48.38;27.52;;;12.10;79.30;;;;;;4761577;30;20036;-81
2021/10/29 19:07:51;;;;;;;47.67;26.95;;;12.00;79.20;;;;;;4758120;30;20035;-81
2021/10/29 19:10:18;;;;;;;48.75;29.83;;;12.00;79.80;;;;;;4747912;30;20044;-79
2021/10/29 19:12:44;;;;;;;66.75;39.75;;;12.00;79.50;;;;;;4755757;30;20333;-81
2021/10/29 19:15:10;;;;;;;92.55;60.13;;;12.00;79.40;;;;;;4757536;30;20115;-81
2021/10/29 19:17:36;;;;;;;69.00;40.60;;;11.90;79.60;;;;;;4760012;30;20029;-80
2021/10/29 19:20:04;;;;;;;53.80;32.53;;;12.00;79.60;;;;;;4753537;30;20044;-80
2021/10/29 19:22:31;;;;;;;49.20;30.00;;;11.90;79.80;;;;;;4758482;30;20039;-81
2021/10/29 19:24:56;;;;;;;51.38;29.20;;;11.90;79.90;;;;;;4760510;30;20263;-81
2021/10/29 19:27:22;;;;;;;46.38;30.42;;;11.90;79.80;;;;;;4760063;30;20040;-80
2021/10/29 19:29:48;;;;;;;46.30;28.77;;;11.90;79.70;;;;;;4760516;30;20041;-80
2021/10/29 19:32:15;;;;;;;66.15;36.95;;;11.90;79.60;;;;;;4761638;30;20044;-80
2021/10/29 19:34:47;;;;;;;53.33;32.67;;;11.80;79.60;;;;;;4761337;30;20494;-80
2021/10/29 19:37:26;;;;;;;49.47;29.23;;;11.90;79.60;;;;;;4750108;30;20079;-81
2021/10/29 19:42:19;;;;;;;49.72;28.08;;;11.90;79.50;;;;;;4761694;30;20059;-81
2021/10/29 19:44:45;;;;;;;52.40;29.45;;;11.90;79.20;;;;;;4760486;30;20457;-81
2021/10/29 19:47:10;;;;;;;44.85;26.88;;;11.90;79.20;;;;;;4751290;30;20064;-80
2021/10/29 19:49:37;;;;;;;46.72;27.05;;;11.90;79.20;;;;;;4756814;30;20043;-83
2021/10/29 19:52:03;;;;;;;43.65;24.90;;;11.80;79.20;;;;;;4751041;30;20287;-79
2021/10/29 19:54:36;;;;;;;46.42;26.40;;;11.90;79.10;;;;;;4746304;30;20335;-81
2021/10/29 19:57:18;;;;;;;35.75;25.45;;;11.90;78.90;;;;;;4755676;30;20284;-81
2021/10/29 19:59:44;;;;;;;41.03;26.35;;;11.90;78.80;;;;;;4758143;30;20394;-80
